Time;durP1;ratioP1;P1;durP2;ratioP2;P2;SDS_P1;SDS_P2;PMS_P1;PMS_P2;Temp;Humidity;BMP_temperature;BMP_pressure;BME280_temperature;BME280_humidity;BME280_pressure;Samples;Min_cycle;Max_cycle;Signal;HPM_P1;HPM_P2
2024/01/12 00:20:07;;;;;;;5.50;1.40;;;26.90;99.90;;;;;;5445626;22;20230;-77
2024/01/12 00:22:41;;;;;;;10.80;1.73;;;26.90;99.90;;;;;;5099449;28;20705;-77
2024/01/12 00:25:19;;;;;;;6.75;1.45;;;26.90;99.90;;;;;;5090197;28;20203;-77
2024/01/12 00:27:54;;;;;;;7.75;1.55;;;26.90;99.90;;;;;;5072775;28;20203;-77
2024/01/12 00:30:26;;;;;;;8.93;1.70;;;26.90;99.90;;;;;;5072139;28;20212;-77
2024/01/12 00:32:59;;;;;;;5.85;1.40;;;26.90;99.90;;;;;;5085746;28;20290;-77
2024/01/12 00:35:35;;;;;;;8.05;1.58;;;26.80;99.90;;;;;;5084143;28;20215;-77
2024/01/12 00:38:07;;;;;;;8.48;1.52;;;26.80;99.90;;;;;;5077198;28;20251;-77
2024/01/12 00:40:39;;;;;;;7.43;1.70;;;26.70;99.90;;;;;;5091314;28;20205;-77
2024/01/12 00:43:13;;;;;;;6.55;1.50;;;26.80;99.90;;;;;;5089609;28;20313;-77
2024/01/12 00:45:55;;;;;;;8.73;1.33;;;26.80;99.90;;;;;;5087070;28;20187;-77
2024/01/12 00:48:32;;;;;;;7.85;1.60;;;26.90;99.90;;;;;;5089508;28;20187;-77
2024/01/12 00:51:18;;;;;;;7.68;1.65;;;26.90;99.90;;;;;;5081912;28;20215;-76
2024/01/12 01:01:57;;;;;;;5.07;1.10;;;26.80;99.90;;;;;;5078082;22;20641;-77
2024/01/12 01:04:32;;;;;;;6.82;1.73;;;26.80;99.90;;;;;;5034863;28;20232;-78
2024/01/12 01:07:10;;;;;;;5.45;1.23;;;26.80;99.90;;;;;;5044406;28;20261;-77
2024/01/12 01:09:42;;;;;;;4.40;1.10;;;26.80;99.90;;;;;;5040482;28;20240;-78
2024/01/12 01:12:17;;;;;;;7.60;1.45;;;26.80;99.90;;;;;;5055316;28;20325;-77
2024/01/12 01:14:51;;;;;;;8.20;1.55;;;26.90;99.90;;;;;;5050806;28;20220;-77
2024/01/12 01:17:24;;;;;;;8.10;1.52;;;26.80;99.90;;;;;;5051464;28;20224;-78
2024/01/12 01:19:56;;;;;;;8.45;1.50;;;26.80;99.90;;;;;;5048987;28;21031;-78
2024/01/12 01:22:34;;;;;;;4.43;1.20;;;26.80;99.90;;;;;;5050322;28;20251;-78
2024/01/12 01:25:06;;;;;;;5.18;1.55;;;26.80;99.90;;;;;;5050743;28;20192;-77
2024/01/12 01:27:38;;;;;;;6.38;1.30;;;26.90;99.90;;;;;;5050781;28;20266;-77
2024/01/12 01:30:19;;;;;;;8.05;1.50;;;27.10;99.90;;;;;;5051154;28;20716;-77
2024/01/12 01:32:54;;;;;;;4.72;1.23;;;27.30;99.90;;;;;;5050437;28;20204;-77
2024/01/12 01:35:27;;;;;;;6.60;1.40;;;27.30;99.90;;;;;;5053638;28;20204;-78
2024/01/12 01:38:01;;;;;;;6.80;1.27;;;27.50;99.90;;;;;;5053236;28;20211;-77
2024/01/12 01:40:37;;;;;;;6.88;1.52;;;27.60;99.90;;;;;;5054388;28;20205;-78
2024/01/12 01:43:19;;;;;;;6.90;1.48;;;27.70;99.90;;;;;;5053572;28;20314;-78
2024/01/12 01:45:50;;;;;;;6.35;1.30;;;27.80;99.90;;;;;;5053420;28;20660;-77
2024/01/12 01:48:21;;;;;;;8.68;1.60;;;27.80;99.90;;;;;;5070605;28;20652;-77
2024/01/12 01:50:54;;;;;;;8.02;1.70;;;27.90;99.90;;;;;;5055417;28;20644;-77
2024/01/12 01:53:29;;;;;;;6.40;1.33;;;27.70;99.90;;;;;;5055414;28;20200;-77
2024/01/12 01:56:01;;;;;;;7.85;1.70;;;27.70;99.90;;;;;;5053558;28;20637;-77
2024/01/12 01:58:34;;;;;;;6.60;1.65;;;27.80;99.90;;;;;;5053708;28;20197;-77
2024/01/12 02:01:06;;;;;;;7.78;1.40;;;27.80;99.90;;;;;;5053958;28;20193;-78
2024/01/12 02:03:40;;;;;;;4.07;1.13;;;27.70;99.90;;;;;;5056516;28;20274;-77
2024/01/12 02:06:17;;;;;;;7.53;1.42;;;27.80;99.90;;;;;;5054638;28;20203;-77
2024/01/12 02:08:55;;;;;;;11.65;1.80;;;27.90;99.90;;;;;;5055085;28;20220;-77
2024/01/12 02:11:26;;;;;;;7.38;1.65;;;27.80;99.90;;;;;;5052478;28;20200;-77
2024/01/12 02:13:57;;;;;;;7.72;1.27;;;27.80;99.90;;;;;;5051798;28;20782;-75
2024/01/12 02:16:28;;;;;;;6.97;1.48;;;27.80;99.90;;;;;;5052985;28;20200;-75
2024/01/12 02:18:59;;;;;;;7.55;1.95;;;27.80;99.90;;;;;;5050694;28;20663;-76
2024/01/12 02:21:32;;;;;;;8.60;1.60;;;27.90;99.90;;;;;;5049147;28;20277;-77
2024/01/12 02:24:02;;;;;;;7.05;1.92;;;27.90;99.90;;;;;;5049180;28;20587;-77
2024/01/12 02:26:33;;;;;;;8.50;1.83;;;28.00;99.90;;;;;;5052075;28;20196;-78
2024/01/12 02:29:05;;;;;;;10.40;1.88;;;28.10;99.90;;;;;;5045927;28;20204;-78
2024/01/12 02:31:35;;;;;;;7.28;1.38;;;28.30;99.90;;;;;;5041083;28;20230;-78
2024/01/12 02:34:06;;;;;;;5.63;1.27;;;28.40;99.90;;;;;;5052323;28;20576;-77
2024/01/12 02:36:39;;;;;;;5.38;1.30;;;28.50;99.90;;;;;;5051442;28;20609;-77
2024/01/12 02:39:10;;;;;;;4.50;1.10;;;28.60;99.90;;;;;;5050513;28;20208;-78
2024/01/12 02:41:41;;;;;;;5.45;1.50;;;28.70;99.90;;;;;;5050401;28;20196;-78
2024/01/12 02:44:11;;;;;;;10.40;1.60;;;28.70;99.90;;;;;;5039656;28;20227;-78
2024/01/12 02:46:42;;;;;;;8.35;1.75;;;28.70;99.90;;;;;;5048365;28;20552;-78
2024/01/12 02:49:13;;;;;;;9.25;1.75;;;28.80;99.90;;;;;;5034598;28;20205;-78
2024/01/12 02:51:45;;;;;;;6.32;1.65;;;28.70;99.90;;;;;;5047561;28;20200;-78
2024/01/12 02:54:17;;;;;;;4.53;1.30;;;28.70;99.90;;;;;;5050480;28;20209;-79
2024/01/12 02:56:48;;;;;;;12.05;1.65;;;28.60;99.90;;;;;;5051920;28;20193;-80
2024/01/12 02:59:18;;;;;;;7.90;1.40;;;28.60;99.90;;;;;;5051642;28;20204;-80
2024/01/12 03:01:49;;;;;;;7.28;1.33;;;28.50;99.90;;;;;;5049872;28;20196;-80
2024/01/12 03:04:20;;;;;;;9.18;1.55;;;28.50;99.90;;;;;;5051315;28;20232;-79
2024/01/12 03:06:52;;;;;;;6.88;1.23;;;28.50;99.90;;;;;;5050285;28;20211;-80
2024/01/12 03:09:24;;;;;;;7.82;2.03;;;28.50;99.90;;;;;;5039711;28;20213;-79
2024/01/12 03:11:55;;;;;;;7.30;1.48;;;28.60;99.90;;;;;;5050160;28;20196;-79
2024/01/12 03:14:26;;;;;;;8.20;1.48;;;28.60;99.90;;;;;;5051169;28;20200;-79
2024/01/12 03:16:57;;;;;;;6.47;1.83;;;28.50;99.90;;;;;;5051010;28;20207;-78
2024/01/12 03:19:27;;;;;;;7.55;1.65;;;28.60;99.90;;;;;;5050984;28;20208;-78
2024/01/12 03:22:00;;;;;;;6.30;1.40;;;28.60;99.90;;;;;;5049792;28;20211;-79
2024/01/12 03:24:31;;;;;;;5.53;1.55;;;28.60;99.90;;;;;;5047381;28;20691;-79
2024/01/12 03:27:01;;;;;;;8.63;1.58;;;28.60;99.90;;;;;;5049682;28;20636;-79
2024/01/12 03:29:32;;;;;;;7.13;1.42;;;28.50;99.90;;;;;;5049186;28;20279;-79
2024/01/12 03:32:03;;;;;;;8.98;1.70;;;28.50;99.90;;;;;;5049784;28;20668;-78
2024/01/12 03:34:34;;;;;;;11.40;1.40;;;28.60;99.90;;;;;;5049959;28;20207;-78
2024/01/12 03:37:07;;;;;;;6.47;1.38;;;28.60;99.90;;;;;;5053604;28;20200;-78
2024/01/12 03:39:38;;;;;;;6.75;1.50;;;28.70;99.90;;;;;;5050831;28;20205;-78
2024/01/12 03:42:11;;;;;;;6.93;1.55;;;28.80;99.90;;;;;;5050749;28;20727;-79
2024/01/12 03:44:41;;;;;;;7.47;1.30;;;28.70;99.90;;;;;;5051116;28;20254;-79
2024/01/12 03:47:12;;;;;;;7.15;1.50;;;28.70;99.90;;;;;;5049522;28;20208;-79
2024/01/12 03:49:43;;;;;;;5.50;1.40;;;28.50;99.90;;;;;;5051573;28;20268;-78
2024/01/12 03:52:18;;;;;;;6.45;1.30;;;28.70;99.90;;;;;;5050937;28;20207;-79
2024/01/12 03:54:49;;;;;;;5.30;1.42;;;28.70;99.90;;;;;;5051187;28;20544;-79
2024/01/12 03:57:20;;;;;;;4.95;1.30;;;28.80;99.90;;;;;;5051001;28;20193;-78
2024/01/12 03:59:51;;;;;;;7.82;1.38;;;28.90;99.90;;;;;;5051697;28;20200;-80
2024/01/12 04:02:21;;;;;;;4.05;1.05;;;28.90;99.90;;;;;;5052599;28;20820;-80
2024/01/12 04:04:52;;;;;;;5.15;1.40;;;28.80;99.90;;;;;;5050386;28;20211;-79
2024/01/12 04:07:25;;;;;;;7.78;1.40;;;28.80;99.90;;;;;;5049040;28;20216;-80
2024/01/12 04:09:56;;;;;;;4.75;1.40;;;28.70;99.90;;;;;;5049873;28;20555;-79
2024/01/12 04:12:29;;;;;;;10.32;1.63;;;28.70;99.90;;;;;;5048122;28;20192;-79
2024/01/12 04:15:00;;;;;;;8.00;1.42;;;28.70;99.90;;;;;;5049967;28;20199;-79
2024/01/12 04:17:37;;;;;;;7.28;1.33;;;28.70;99.90;;;;;;5053618;28;20228;-78
2024/01/12 04:20:09;;;;;;;8.60;1.63;;;28.80;99.90;;;;;;5054054;28;20200;-79
2024/01/12 04:23:11;;;;;;;7.80;1.63;;;28.80;99.90;;;;;;5056537;28;20209;-79
2024/01/12 04:29:22;;;;;;;10.80;1.70;;;28.90;99.90;;;;;;5065047;28;20203;-77
2024/01/12 04:35:02;;;;;;;5.82;1.42;;;28.80;99.90;;;;;;5028398;28;20193;-80
2024/01/12 04:37:33;;;;;;;6.65;1.80;;;28.80;99.90;;;;;;5046272;28;20208;-79
2024/01/12 04:40:07;;;;;;;8.05;1.60;;;28.80;99.90;;;;;;5053381;28;20192;-80
2024/01/12 04:42:37;;;;;;;7.82;1.40;;;28.70;99.90;;;;;;5051851;28;20283;-79
2024/01/12 04:45:09;;;;;;;7.25;1.45;;;28.70;99.90;;;;;;5049840;28;20283;-79
2024/01/12 04:47:39;;;;;;;5.97;1.50;;;28.60;99.90;;;;;;5048160;28;20215;-78
2024/01/12 04:50:10;;;;;;;6.38;1.52;;;28.60;99.90;;;;;;5050375;28;20200;-78
2024/01/12 04:52:41;;;;;;;7.38;1.52;;;28.70;99.90;;;;;;5045189;28;20305;-79
2024/01/12 04:55:14;;;;;;;6.30;1.40;;;28.80;99.90;;;;;;5038849;28;20209;-79
2024/01/12 04:57:45;;;;;;;7.65;1.45;;;29.00;99.90;;;;;;5049425;28;20206;-79
2024/01/12 05:00:19;;;;;;;6.32;1.35;;;29.10;99.90;;;;;;5049475;28;20205;-79
2024/01/12 05:02:50;;;;;;;4.70;1.23;;;29.10;99.90;;;;;;5050112;28;20235;-79
2024/01/12 05:05:20;;;;;;;8.20;1.70;;;29.20;99.90;;;;;;5047781;28;20203;-80
2024/01/12 05:07:51;;;;;;;5.28;1.27;;;29.40;99.90;;;;;;5040436;28;20197;-78
2024/01/12 05:10:24;;;;;;;8.98;1.63;;;29.30;99.90;;;;;;5054473;28;20216;-79
2024/01/12 05:12:54;;;;;;;7.72;1.50;;;29.20;99.90;;;;;;5056084;28;20197;-78
2024/01/12 05:15:25;;;;;;;5.28;1.35;;;29.30;99.90;;;;;;5051355;28;20576;-78
2024/01/12 05:17:56;;;;;;;7.32;1.50;;;29.40;99.90;;;;;;5063615;28;20206;-78
2024/01/12 05:20:32;;;;;;;6.85;1.70;;;29.40;99.90;;;;;;5053674;28;20204;-78
2024/01/12 05:23:05;;;;;;;5.38;1.27;;;29.40;99.90;;;;;;5053695;28;20201;-79
2024/01/12 05:25:41;;;;;;;7.75;1.70;;;29.30;99.90;;;;;;5053849;28;20234;-79
2024/01/12 05:28:12;;;;;;;10.13;1.80;;;29.40;99.90;;;;;;5046250;28;20477;-79
2024/01/12 05:30:42;;;;;;;7.15;1.63;;;29.30;99.90;;;;;;5051762;28;20577;-79
2024/01/12 05:33:13;;;;;;;7.00;1.60;;;29.10;99.90;;;;;;5052847;28;20203;-79
2024/01/12 05:35:45;;;;;;;7.45;1.60;;;29.00;99.90;;;;;;5052635;28;20217;-80
2024/01/12 05:38:16;;;;;;;9.48;1.70;;;29.00;99.90;;;;;;5052472;28;20197;-79
2024/01/12 05:40:49;;;;;;;8.85;1.45;;;29.10;99.90;;;;;;5052541;28;20200;-79
2024/01/12 05:43:20;;;;;;;7.45;1.48;;;29.20;99.90;;;;;;5053294;28;20220;-79
2024/01/12 05:45:50;;;;;;;8.80;1.65;;;29.30;99.90;;;;;;5050771;28;20199;-79
2024/01/12 05:48:21;;;;;;;9.27;1.73;;;29.20;99.90;;;;;;5041509;28;20204;-80
2024/01/12 05:50:52;;;;;;;8.00;1.67;;;29.00;99.90;;;;;;5047244;28;20196;-78
2024/01/12 05:53:25;;;;;;;10.35;2.10;;;29.10;99.90;;;;;;5051807;28;20211;-79
2024/01/12 05:55:58;;;;;;;9.02;1.70;;;29.20;99.90;;;;;;5053417;28;20199;-80
2024/01/12 05:58:29;;;;;;;9.50;1.65;;;29.20;99.90;;;;;;5043578;28;20205;-79
2024/01/12 06:01:00;;;;;;;8.98;1.73;;;29.20;99.90;;;;;;5046565;28;20258;-79
2024/01/12 06:03:31;;;;;;;13.85;2.03;;;29.10;99.90;;;;;;5053277;28;20232;-80
2024/01/12 06:06:02;;;;;;;10.75;2.00;;;29.10;99.90;;;;;;5052815;28;20215;-79
2024/01/12 06:08:33;;;;;;;8.60;1.80;;;28.90;99.90;;;;;;5051214;28;20695;-79
2024/01/12 06:11:06;;;;;;;9.40;2.20;;;28.70;99.90;;;;;;5051916;28;20203;-79
2024/01/12 06:13:36;;;;;;;9.63;2.05;;;28.90;99.90;;;;;;5051102;28;20211;-79
2024/01/12 06:16:07;;;;;;;7.85;1.77;;;29.00;99.90;;;;;;5041081;28;20193;-78
2024/01/12 06:18:38;;;;;;;7.95;1.85;;;29.40;99.90;;;;;;5051747;28;20196;-79
2024/01/12 06:21:09;;;;;;;7.18;1.77;;;29.50;99.90;;;;;;5051917;28;20200;-78
2024/01/12 06:23:40;;;;;;;9.00;1.73;;;29.90;99.90;;;;;;5051590;28;20220;-78
2024/01/12 06:26:12;;;;;;;10.50;2.03;;;30.10;99.90;;;;;;5032870;28;20197;-80
2024/01/12 06:28:43;;;;;;;10.35;2.03;;;30.50;99.90;;;;;;5049403;28;20203;-79
2024/01/12 06:31:14;;;;;;;9.20;1.65;;;30.50;99.90;;;;;;5051527;28;20216;-78
2024/01/12 06:33:47;;;;;;;8.85;1.80;;;30.10;99.90;;;;;;5052447;28;20552;-79
2024/01/12 06:36:18;;;;;;;7.05;1.50;;;30.20;99.90;;;;;;5052999;28;20292;-78
2024/01/12 06:38:49;;;;;;;7.22;1.55;;;30.60;99.90;;;;;;5050766;28;20201;-79
2024/01/12 06:41:21;;;;;;;9.85;1.88;;;30.90;99.90;;;;;;5052074;28;20220;-78
2024/01/12 06:43:52;;;;;;;12.00;2.10;;;31.20;99.90;;;;;;5034431;28;20221;-78
2024/01/12 06:46:23;;;;;;;7.38;1.92;;;31.60;99.90;;;;;;5046878;28;20197;-84
2024/01/12 06:48:54;;;;;;;10.82;1.98;;;31.90;99.90;;;;;;5050972;28;20193;-78
2024/01/12 06:51:28;;;;;;;10.02;2.30;;;31.80;99.90;;;;;;5051891;28;20197;-79
2024/01/12 06:53:59;;;;;;;13.40;2.38;;;31.70;99.90;;;;;;5052111;28;20211;-79
2024/01/12 06:56:37;;;;;;;6.40;1.75;;;31.50;99.90;;;;;;5050645;28;20675;-79
2024/01/12 06:59:07;;;;;;;10.82;2.10;;;30.90;99.90;;;;;;5051078;28;20197;-79
2024/01/12 07:01:38;;;;;;;9.55;1.90;;;30.40;99.90;;;;;;5051464;28;20201;-79
2024/01/12 07:04:09;;;;;;;8.57;2.22;;;30.70;99.90;;;;;;5052961;28;20326;-78
2024/01/12 07:06:42;;;;;;;8.93;1.92;;;31.60;99.90;;;;;;5050767;28;20254;-79
2024/01/12 07:09:14;;;;;;;11.50;2.33;;;31.90;99.90;;;;;;5048799;28;20779;-78
2024/01/12 07:11:47;;;;;;;7.30;1.98;;;31.90;99.90;;;;;;5049834;28;20203;-77
2024/01/12 07:14:18;;;;;;;10.73;2.03;;;31.40;99.90;;;;;;5049141;28;20197;-79
2024/01/12 07:16:49;;;;;;;8.93;1.90;;;31.20;99.90;;;;;;5050566;28;20201;-78
2024/01/12 07:19:20;;;;;;;9.88;2.20;;;31.10;99.90;;;;;;5051629;28;20201;-79
2024/01/12 07:21:51;;;;;;;8.70;2.17;;;31.30;99.90;;;;;;5052111;28;20200;-78
2024/01/12 07:24:22;;;;;;;9.75;1.90;;;31.00;99.90;;;;;;5050140;28;20216;-79
2024/01/12 07:26:54;;;;;;;8.70;2.03;;;30.90;99.90;;;;;;5049555;28;20199;-78
2024/01/12 07:29:25;;;;;;;10.35;2.05;;;30.30;99.90;;;;;;5050324;28;20200;-80
2024/01/12 07:31:58;;;;;;;7.95;2.08;;;29.80;99.90;;;;;;5049471;28;20284;-79
2024/01/12 07:34:28;;;;;;;10.60;1.88;;;29.30;99.90;;;;;;5049949;28;20204;-78
2024/01/12 07:37:00;;;;;;;10.90;2.17;;;28.90;99.90;;;;;;5050358;28;20663;-78
2024/01/12 07:39:32;;;;;;;9.68;2.25;;;28.50;99.90;;;;;;5049735;28;20215;-78
2024/01/12 07:42:04;;;;;;;8.80;2.00;;;28.60;99.90;;;;;;5050927;28;20295;-79
2024/01/12 07:44:35;;;;;;;11.55;2.35;;;28.60;99.90;;;;;;5049343;28;20231;-79
2024/01/12 07:47:06;;;;;;;10.68;2.20;;;28.80;99.90;;;;;;5049248;28;20188;-79
2024/01/12 07:49:37;;;;;;;11.52;2.17;;;29.10;99.90;;;;;;5039168;28;20586;-79
2024/01/12 07:52:08;;;;;;;10.60;2.22;;;29.50;99.90;;;;;;5045433;28;20203;-79
2024/01/12 07:54:39;;;;;;;8.93;2.28;;;29.20;99.90;;;;;;5049465;28;20205;-79
2024/01/12 07:57:11;;;;;;;10.00;2.03;;;29.00;99.90;;;;;;5050319;28;20663;-80
2024/01/12 07:59:42;;;;;;;15.40;2.28;;;28.60;99.90;;;;;;5049481;28;20188;-80
2024/01/12 08:02:16;;;;;;;10.38;2.20;;;28.40;99.90;;;;;;5046882;28;20229;-80
2024/01/12 08:04:47;;;;;;;9.48;2.13;;;28.20;99.90;;;;;;5050333;28;20703;-80
2024/01/12 08:07:18;;;;;;;6.70;1.83;;;28.30;99.90;;;;;;5050490;28;20209;-80
2024/01/12 08:09:48;;;;;;;12.50;2.47;;;28.20;99.90;;;;;;5051287;28;20282;-79
2024/01/12 08:12:21;;;;;;;6.78;1.45;;;28.10;99.90;;;;;;5053139;28;20204;-78
2024/01/12 08:14:52;;;;;;;10.80;2.10;;;28.10;99.90;;;;;;5051032;28;20192;-78
2024/01/12 08:17:23;;;;;;;11.00;2.13;;;28.00;99.90;;;;;;5049468;28;20193;-78
2024/01/12 08:19:53;;;;;;;9.95;2.25;;;27.80;99.90;;;;;;5030595;28;20675;-79
2024/01/12 08:22:24;;;;;;;10.23;2.10;;;27.70;99.90;;;;;;5048293;28;20203;-78
2024/01/12 08:24:55;;;;;;;7.80;1.75;;;27.60;99.90;;;;;;5049496;28;20232;-79
2024/01/12 08:27:27;;;;;;;9.75;2.05;;;27.70;99.90;;;;;;5049924;28;20203;-78
2024/01/12 08:29:58;;;;;;;11.80;1.85;;;27.60;99.90;;;;;;5050104;28;20211;-79
2024/01/12 08:32:29;;;;;;;8.60;1.98;;;27.50;99.90;;;;;;5048238;28;20196;-78
2024/01/12 08:35:00;;;;;;;11.45;2.33;;;27.40;99.90;;;;;;5052296;28;20209;-79
2024/01/12 08:37:30;;;;;;;8.40;2.10;;;27.40;99.90;;;;;;5044102;28;20243;-79
2024/01/12 08:40:01;;;;;;;9.40;2.05;;;27.40;99.90;;;;;;5048811;28;20199;-78
2024/01/12 08:42:41;;;;;;;9.25;2.22;;;27.40;99.90;;;;;;5049771;28;20214;-78
2024/01/12 08:45:12;;;;;;;12.82;2.25;;;27.30;99.90;;;;;;5053094;28;20220;-78
2024/01/12 08:47:43;;;;;;;9.82;2.20;;;27.20;99.90;;;;;;5052972;28;20238;-78
2024/01/12 08:50:14;;;;;;;7.65;1.63;;;27.20;99.90;;;;;;5053604;28;20200;-79
2024/01/12 08:52:45;;;;;;;9.40;2.15;;;27.20;99.90;;;;;;5053359;28;20226;-79
2024/01/12 08:55:18;;;;;;;8.45;2.00;;;27.10;99.90;;;;;;5053406;28;20566;-79
2024/01/12 08:57:52;;;;;;;8.13;1.88;;;27.10;99.90;;;;;;5053762;28;20185;-80
2024/01/12 09:00:23;;;;;;;9.48;1.80;;;27.00;99.90;;;;;;5053792;28;20196;-80
2024/01/12 09:02:54;;;;;;;8.23;1.88;;;27.00;99.90;;;;;;5053664;28;20727;-80
2024/01/12 09:05:25;;;;;;;8.50;2.00;;;26.90;99.90;;;;;;5051543;28;20611;-79
2024/01/12 09:07:56;;;;;;;9.80;2.05;;;26.90;99.90;;;;;;5053393;28;20212;-78
2024/01/12 09:10:26;;;;;;;11.48;2.05;;;26.80;99.90;;;;;;5050600;28;20220;-79
2024/01/12 09:12:59;;;;;;;12.13;2.20;;;26.80;99.90;;;;;;5046909;28;20193;-78
2024/01/12 09:15:30;;;;;;;8.73;1.95;;;26.70;99.90;;;;;;5052436;28;20284;-78
2024/01/12 09:18:01;;;;;;;11.23;2.35;;;26.70;99.90;;;;;;5044961;28;20197;-78
2024/01/12 09:20:32;;;;;;;11.30;2.45;;;26.80;99.90;;;;;;5048742;28;20204;-78
2024/01/12 09:23:02;;;;;;;9.95;2.30;;;26.70;99.90;;;;;;5051947;28;20201;-78
2024/01/12 09:25:34;;;;;;;10.80;2.17;;;26.70;99.90;;;;;;5050838;28;20671;-78
2024/01/12 09:28:07;;;;;;;9.85;2.00;;;26.70;99.90;;;;;;5051396;28;20773;-78
2024/01/12 09:30:39;;;;;;;10.25;2.05;;;26.70;99.90;;;;;;5049147;28;20192;-78
2024/01/12 09:33:10;;;;;;;10.63;2.30;;;26.70;99.90;;;;;;5049118;28;20228;-78
2024/01/12 09:35:40;;;;;;;11.65;2.38;;;26.70;99.90;;;;;;5051467;28;20666;-78
2024/01/12 09:38:14;;;;;;;12.63;2.20;;;26.70;99.90;;;;;;5045955;28;20656;-78
2024/01/12 09:40:45;;;;;;;9.73;2.17;;;26.60;99.90;;;;;;5051271;28;20553;-78
2024/01/12 09:43:18;;;;;;;9.98;2.10;;;26.60;99.90;;;;;;5046592;28;20670;-79
2024/01/12 09:45:52;;;;;;;10.93;2.00;;;26.60;99.90;;;;;;5052311;28;20225;-79
2024/01/12 09:48:23;;;;;;;10.82;2.30;;;26.60;99.90;;;;;;5051080;28;20200;-79
2024/01/12 09:50:55;;;;;;;12.25;2.88;;;26.60;99.90;;;;;;5052620;28;20698;-77
2024/01/12 09:53:26;;;;;;;10.68;2.17;;;26.50;99.90;;;;;;5050632;28;20192;-77
2024/01/12 09:55:57;;;;;;;11.77;2.38;;;26.50;99.90;;;;;;5052143;28;20203;-78
2024/01/12 09:58:30;;;;;;;9.77;2.47;;;26.50;99.90;;;;;;5051970;28;20192;-78
2024/01/12 10:01:01;;;;;;;12.18;2.22;;;26.60;99.90;;;;;;5051523;28;20204;-78
2024/01/12 10:03:32;;;;;;;10.20;2.33;;;26.50;99.90;;;;;;5049862;28;20239;-79
2024/01/12 10:06:03;;;;;;;13.55;2.30;;;26.50;99.90;;;;;;5038635;28;20229;-78
2024/01/12 10:08:40;;;;;;;9.00;2.28;;;26.50;99.90;;;;;;5047368;28;20220;-79
2024/01/12 10:11:11;;;;;;;9.50;2.22;;;26.40;99.90;;;;;;5051495;28;20197;-79
2024/01/12 10:13:44;;;;;;;13.30;2.40;;;26.50;99.90;;;;;;5037839;28;20189;-79
2024/01/12 10:16:14;;;;;;;10.25;2.50;;;26.50;99.90;;;;;;5052015;28;20203;-79
2024/01/12 10:18:45;;;;;;;10.98;2.25;;;26.40;99.90;;;;;;5051758;28;20204;-79
2024/01/12 10:21:16;;;;;;;8.13;1.85;;;26.40;99.90;;;;;;5051540;28;20217;-79
2024/01/12 10:23:47;;;;;;;11.15;2.28;;;26.40;99.90;;;;;;5042570;28;20204;-78
2024/01/12 10:26:18;;;;;;;9.55;2.08;;;26.40;99.90;;;;;;5049253;28;20232;-78
2024/01/12 10:28:50;;;;;;;10.10;2.03;;;26.40;99.90;;;;;;5052610;28;20201;-78
2024/01/12 10:31:22;;;;;;;10.65;2.20;;;26.40;99.90;;;;;;5051250;28;20204;-78
2024/01/12 10:33:58;;;;;;;10.10;2.33;;;26.40;99.90;;;;;;5047871;28;20197;-78
2024/01/12 10:36:30;;;;;;;13.27;2.45;;;26.40;99.90;;;;;;5036383;28;20203;-78
2024/01/12 10:39:03;;;;;;;7.30;2.13;;;26.40;99.90;;;;;;5040140;28;20212;-79
2024/01/12 10:41:37;;;;;;;11.88;2.33;;;26.30;99.90;;;;;;5049212;28;20215;-79
2024/01/12 10:44:10;;;;;;;9.18;1.90;;;26.30;99.90;;;;;;5048306;28;20195;-79
2024/01/12 10:46:47;;;;;;;11.40;1.98;;;26.30;99.90;;;;;;5050826;28;20315;-79
2024/01/12 10:49:21;;;;;;;10.48;2.00;;;26.30;99.90;;;;;;5053083;28;20648;-79
2024/01/12 10:52:01;;;;;;;11.05;2.30;;;26.30;99.90;;;;;;5049074;28;20196;-79
2024/01/12 10:54:36;;;;;;;13.70;2.45;;;26.30;99.90;;;;;;5056061;28;20224;-79
2024/01/12 10:57:07;;;;;;;10.77;2.30;;;26.30;99.90;;;;;;5051126;28;20690;-78
2024/01/12 10:59:41;;;;;;;8.98;1.90;;;26.20;99.90;;;;;;5047812;28;20315;-78
2024/01/12 11:02:17;;;;;;;13.20;2.13;;;26.30;99.90;;;;;;5046538;28;20236;-78
2024/01/12 11:04:48;;;;;;;11.60;2.88;;;26.30;99.90;;;;;;5048897;28;20627;-77
2024/01/12 11:07:19;;;;;;;10.38;2.45;;;26.30;99.90;;;;;;5050179;28;20200;-77
2024/01/12 11:09:50;;;;;;;11.52;2.30;;;26.30;99.90;;;;;;5053218;28;20595;-77
2024/01/12 11:12:31;;;;;;;11.88;2.55;;;26.20;99.90;;;;;;5050613;28;20281;-77
2024/01/12 11:15:05;;;;;;;10.88;2.50;;;26.20;99.90;;;;;;5050732;28;20204;-77
2024/01/12 11:17:38;;;;;;;8.13;2.22;;;26.30;99.90;;;;;;5051174;28;20208;-78
2024/01/12 11:20:11;;;;;;;11.15;2.20;;;26.20;99.90;;;;;;5050451;28;22361;-78
2024/01/12 11:22:42;;;;;;;12.00;2.53;;;26.20;99.90;;;;;;5050728;28;20659;-78
2024/01/12 11:25:15;;;;;;;10.30;2.13;;;26.20;99.90;;;;;;5043940;28;20260;-78
2024/01/12 11:27:49;;;;;;;11.20;2.20;;;26.20;99.90;;;;;;5051373;28;20624;-78
2024/01/12 11:30:24;;;;;;;13.05;2.08;;;26.20;99.90;;;;;;5050278;28;20200;-78
2024/01/12 11:33:04;;;;;;;9.95;2.10;;;26.20;99.90;;;;;;5050471;28;20275;-78
2024/01/12 11:35:37;;;;;;;14.45;2.70;;;26.20;99.90;;;;;;5047676;28;20204;-77
2024/01/12 11:38:10;;;;;;;9.98;2.33;;;26.20;99.90;;;;;;5030841;28;20197;-78
2024/01/12 11:40:42;;;;;;;10.65;2.45;;;26.20;99.90;;;;;;5044854;28;20243;-78
2024/01/12 11:43:19;;;;;;;9.50;2.20;;;26.20;99.90;;;;;;5046649;28;20679;-78
2024/01/12 11:45:55;;;;;;;9.32;2.47;;;26.20;99.90;;;;;;5050069;28;20227;-77
2024/01/12 11:48:25;;;;;;;13.65;2.35;;;26.20;99.90;;;;;;5050755;28;20196;-77
2024/01/12 11:50:56;;;;;;;12.02;2.58;;;26.10;99.90;;;;;;5049151;28;20215;-78
2024/01/12 11:53:27;;;;;;;11.32;2.03;;;26.20;99.90;;;;;;5049758;28;20207;-78
2024/01/12 11:55:58;;;;;;;11.23;2.03;;;26.10;99.90;;;;;;5049739;28;20201;-77
2024/01/12 11:58:32;;;;;;;10.95;2.50;;;26.10;99.90;;;;;;5050612;28;20684;-79
2024/01/12 12:01:06;;;;;;;12.52;2.28;;;26.20;99.90;;;;;;5050378;28;20279;-78
2024/01/12 12:03:37;;;;;;;11.52;2.00;;;26.20;99.90;;;;;;5049948;28;20315;-79
2024/01/12 12:06:11;;;;;;;12.43;2.40;;;26.10;99.90;;;;;;5041183;28;20217;-79
2024/01/12 12:08:42;;;;;;;12.57;2.05;;;26.10;99.90;;;;;;5049090;28;20219;-80
2024/01/12 12:11:15;;;;;;;8.68;1.98;;;26.10;99.90;;;;;;5055248;28;20196;-80
2024/01/12 12:13:46;;;;;;;11.30;2.40;;;26.10;99.90;;;;;;5050442;28;20573;-79
2024/01/12 12:16:19;;;;;;;13.75;2.78;;;26.10;99.90;;;;;;5049409;28;20204;-79
2024/01/12 12:18:49;;;;;;;9.25;2.28;;;26.10;99.90;;;;;;5050762;28;20611;-80
2024/01/12 12:21:20;;;;;;;11.10;2.00;;;26.10;99.90;;;;;;5049484;28;20250;-80
2024/01/12 12:23:51;;;;;;;9.82;2.10;;;26.00;99.90;;;;;;5051500;28;20596;-81
2024/01/12 12:26:22;;;;;;;9.25;2.20;;;26.00;99.90;;;;;;5050250;28;20240;-79
2024/01/12 12:28:53;;;;;;;12.05;2.40;;;26.00;99.90;;;;;;5044450;28;20201;-80
2024/01/12 12:31:27;;;;;;;8.93;2.10;;;26.00;99.90;;;;;;5037139;28;20201;-79
2024/01/12 12:33:57;;;;;;;9.63;1.95;;;26.00;99.90;;;;;;5048318;28;20192;-80
2024/01/12 12:36:31;;;;;;;9.57;2.20;;;26.00;99.90;;;;;;5050058;28;20678;-78
2024/01/12 12:39:04;;;;;;;12.98;2.20;;;25.90;99.90;;;;;;5049258;28;20556;-79
2024/01/12 12:41:35;;;;;;;9.43;2.10;;;25.90;99.90;;;;;;5030095;28;20189;-78
2024/01/12 12:44:07;;;;;;;11.05;2.30;;;25.90;99.90;;;;;;5046433;28;20200;-79
2024/01/12 12:46:40;;;;;;;9.32;2.38;;;25.80;99.90;;;;;;5048154;28;20232;-79
2024/01/12 12:49:11;;;;;;;10.23;1.98;;;25.80;99.90;;;;;;5049051;28;20196;-79
2024/01/12 12:51:42;;;;;;;9.45;2.03;;;25.80;99.90;;;;;;5049819;28;20197;-78
2024/01/12 12:54:12;;;;;;;10.25;1.95;;;25.80;99.90;;;;;;5049217;28;20200;-79
2024/01/12 12:56:46;;;;;;;7.75;1.95;;;25.80;99.90;;;;;;5049325;28;20524;-78
2024/01/12 12:59:17;;;;;;;9.45;1.98;;;25.80;99.90;;;;;;5047685;28;20207;-79
2024/01/12 13:01:49;;;;;;;9.18;2.28;;;25.80;99.90;;;;;;5049495;28;20204;-79
2024/01/12 13:04:20;;;;;;;8.93;2.10;;;25.80;99.90;;;;;;5049863;28;20188;-79
2024/01/12 13:06:51;;;;;;;11.00;2.15;;;25.80;99.90;;;;;;5049792;28;20239;-78
2024/01/12 13:09:22;;;;;;;9.63;2.08;;;25.80;99.90;;;;;;5049148;28;20228;-79
2024/01/12 13:11:56;;;;;;;13.07;2.60;;;25.70;99.90;;;;;;5049852;28;20207;-79
2024/01/12 13:14:27;;;;;;;9.77;2.10;;;25.80;99.90;;;;;;5049903;28;20199;-79
2024/01/12 13:17:00;;;;;;;14.40;2.72;;;25.70;99.90;;;;;;5048777;28;20193;-79
2024/01/12 13:19:31;;;;;;;11.80;2.60;;;25.70;99.90;;;;;;5049630;28;20560;-79
2024/01/12 13:22:02;;;;;;;11.23;2.05;;;25.70;99.90;;;;;;5050055;28;20258;-79
2024/01/12 13:24:32;;;;;;;8.55;1.90;;;25.70;99.90;;;;;;5049290;28;20254;-79
2024/01/12 13:27:03;;;;;;;12.68;2.47;;;25.70;99.90;;;;;;5052177;28;20722;-79
2024/01/12 13:29:34;;;;;;;13.30;2.40;;;25.70;99.90;;;;;;5054954;28;20227;-79
2024/01/12 13:32:07;;;;;;;11.82;2.20;;;25.70;99.90;;;;;;5050595;28;20227;-79
2024/01/12 13:34:37;;;;;;;10.07;2.20;;;25.70;99.90;;;;;;5051904;28;20199;-79
2024/01/12 13:37:08;;;;;;;10.13;1.85;;;25.60;99.90;;;;;;5053405;28;20679;-79
2024/01/12 13:39:39;;;;;;;7.03;1.67;;;25.60;99.90;;;;;;5054197;28;20571;-79
2024/01/12 13:42:10;;;;;;;12.15;2.17;;;25.60;99.90;;;;;;5052732;28;20246;-78